sensor_id;sensor_type;location;lat;lon;timestamp;pressure;altitude;pressure_sealevel;temperature;humidity
61408;BME280;47274;43.054;25.146;2023-08-06T00:00:07;94344.66;;;20.83;67.57
61408;BME280;47274;43.054;25.146;2023-08-06T00:02:34;94354.97;;;21.12;66.47
61408;BME280;47274;43.054;25.146;2023-08-06T00:05:00;94378.66;;;21.27;66.17
61408;BME280;47274;43.054;25.146;2023-08-06T00:07:26;94432.28;;;21.18;67.75
61408;BME280;47274;43.054;25.146;2023-08-06T00:09:55;94343.09;;;20.82;66.93
61408;BME280;47274;43.054;25.146;2023-08-06T00:12:21;94353.34;;;20.89;66.88
61408;BME280;47274;43.054;25.146;2023-08-06T00:14:57;94418.34;;;20.33;70.29
61408;BME280;47274;43.054;25.146;2023-08-06T00:17:25;94390.88;;;20.26;69.51
61408;BME280;47274;43.054;25.146;2023-08-06T00:20:13;94421.38;;;20.71;68.25
61408;BME280;47274;43.054;25.146;2023-08-06T00:22:39;94378.16;;;20.29;68.56
61408;BME280;47274;43.054;25.146;2023-08-06T00:25:13;94437.44;;;20.96;66.93
61408;BME280;47274;43.054;25.146;2023-08-06T00:27:49;94335.06;;;20.22;67.24
61408;BME280;47274;43.054;25.146;2023-08-06T00:30:24;94345.38;;;20.17;67.63
61408;BME280;47274;43.054;25.146;2023-08-06T00:32:52;94338.75;;;20.09;67.63
61408;BME280;47274;43.054;25.146;2023-08-06T00:35:20;94379.34;;;20.67;65.46
61408;BME280;47274;43.054;25.146;2023-08-06T00:37:46;94406.28;;;21.06;64.83
61408;BME280;47274;43.054;25.146;2023-08-06T00:40:16;94340.66;;;20.47;65.29
61408;BME280;47274;43.054;25.146;2023-08-06T00:42:48;94344.94;;;20.36;66.13
61408;BME280;47274;43.054;25.146;2023-08-06T00:45:17;94405.09;;;20.64;65.92
61408;BME280;47274;43.054;25.146;2023-08-06T00:47:59;94382.25;;;20.71;65.95
61408;BME280;47274;43.054;25.146;2023-08-06T00:50:25;94402.94;;;20.61;66.48
61408;BME280;47274;43.054;25.146;2023-08-06T00:52:52;94406.81;;;20.75;65.88
61408;BME280;47274;43.054;25.146;2023-08-06T00:55:20;94435.03;;;21.28;64.61
61408;BME280;47274;43.054;25.146;2023-08-06T00:57:49;94446.75;;;21.82;62.42
61408;BME280;47274;43.054;25.146;2023-08-06T01:00:16;94439.22;;;21.46;63.30
61408;BME280;47274;43.054;25.146;2023-08-06T01:02:45;94446.25;;;22.07;61.75
61408;BME280;47274;43.054;25.146;2023-08-06T01:05:21;94364.25;;;21.64;61.09
61408;BME280;47274;43.054;25.146;2023-08-06T01:08:19;94431.84;;;22.04;61.52
61408;BME280;47274;43.054;25.146;2023-08-06T01:15:58;94446.59;;;22.37;60.46
61408;BME280;47274;43.054;25.146;2023-08-06T01:18:28;94444.31;;;22.46;59.55
61408;BME280;47274;43.054;25.146;2023-08-06T01:20:54;94409.94;;;22.32;58.98
61408;BME280;47274;43.054;25.146;2023-08-06T01:23:28;94338.53;;;21.99;58.89
61408;BME280;47274;43.054;25.146;2023-08-06T01:26:19;94377.00;;;22.31;58.70
61408;BME280;47274;43.054;25.146;2023-08-06T01:29:07;94435.88;;;22.66;58.51
61408;BME280;47274;43.054;25.146;2023-08-06T01:31:37;94393.63;;;22.20;58.70
61408;BME280;47274;43.054;25.146;2023-08-06T01:34:10;94375.44;;;22.30;58.10
61408;BME280;47274;43.054;25.146;2023-08-06T01:36:39;94406.03;;;22.30;58.56
61408;BME280;47274;43.054;25.146;2023-08-06T01:39:16;94361.09;;;21.84;59.46
61408;BME280;47274;43.054;25.146;2023-08-06T01:41:42;94394.53;;;22.09;59.54
61408;BME280;47274;43.054;25.146;2023-08-06T01:44:08;94354.47;;;21.76;59.72
61408;BME280;47274;43.054;25.146;2023-08-06T01:46:34;94392.56;;;22.16;59.13
61408;BME280;47274;43.054;25.146;2023-08-06T01:49:15;94342.75;;;21.79;59.51
61408;BME280;47274;43.054;25.146;2023-08-06T01:51:40;94342.47;;;21.75;59.59
61408;BME280;47274;43.054;25.146;2023-08-06T01:54:14;94299.69;;;20.93;61.66
61408;BME280;47274;43.054;25.146;2023-08-06T01:56:49;94370.53;;;21.24;62.01
61408;BME280;47274;43.054;25.146;2023-08-06T01:59:14;94315.72;;;21.24;60.95
61408;BME280;47274;43.054;25.146;2023-08-06T02:01:40;94397.03;;;21.76;60.41
61408;BME280;47274;43.054;25.146;2023-08-06T02:04:08;94387.63;;;21.75;61.05
61408;BME280;47274;43.054;25.146;2023-08-06T02:06:33;94405.06;;;21.31;62.75
61408;BME280;47274;43.054;25.146;2023-08-06T02:08:59;94368.13;;;21.22;62.05
61408;BME280;47274;43.054;25.146;2023-08-06T02:11:25;94404.66;;;21.39;62.03
61408;BME280;47274;43.054;25.146;2023-08-06T02:13:51;94368.25;;;21.49;60.61
61408;BME280;47274;43.054;25.146;2023-08-06T02:16:29;94351.34;;;21.13;62.02
61408;BME280;47274;43.054;25.146;2023-08-06T02:18:55;94370.56;;;21.07;62.54
61408;BME280;47274;43.054;25.146;2023-08-06T02:21:42;94368.13;;;21.39;61.03
61408;BME280;47274;43.054;25.146;2023-08-06T02:24:10;94339.56;;;21.71;59.60
61408;BME280;47274;43.054;25.146;2023-08-06T02:26:38;94294.16;;;20.90;61.27
61408;BME280;47274;43.054;25.146;2023-08-06T02:29:10;94347.91;;;21.13;61.42
61408;BME280;47274;43.054;25.146;2023-08-06T02:31:38;94295.69;;;20.69;62.00
61408;BME280;47274;43.054;25.146;2023-08-06T02:34:09;94346.00;;;21.42;60.09
61408;BME280;47274;43.054;25.146;2023-08-06T02:36:38;94354.31;;;21.61;60.39
61408;BME280;47274;43.054;25.146;2023-08-06T02:39:04;94392.69;;;20.88;63.45
61408;BME280;47274;43.054;25.146;2023-08-06T02:41:30;94356.50;;;20.91;62.19
61408;BME280;47274;43.054;25.146;2023-08-06T02:43:58;94382.09;;;20.94;62.46
61408;BME280;47274;43.054;25.146;2023-08-06T02:46:24;94345.16;;;21.02;61.11
61408;BME280;47274;43.054;25.146;2023-08-06T02:48:53;94398.38;;;21.79;60.61
61408;BME280;47274;43.054;25.146;2023-08-06T02:51:19;94367.41;;;21.66;60.24
61408;BME280;47274;43.054;25.146;2023-08-06T02:53:47;94359.94;;;21.52;60.04
61408;BME280;47274;43.054;25.146;2023-08-06T02:56:15;94361.16;;;21.89;59.19
61408;BME280;47274;43.054;25.146;2023-08-06T02:58:56;94359.59;;;22.42;58.44
61408;BME280;47274;43.054;25.146;2023-08-06T03:01:34;94377.84;;;22.64;57.55
61408;BME280;47274;43.054;25.146;2023-08-06T03:04:08;94379.41;;;22.11;58.49
61408;BME280;47274;43.054;25.146;2023-08-06T03:06:39;94350.03;;;21.16;61.45
61408;BME280;47274;43.054;25.146;2023-08-06T03:09:05;94333.75;;;20.87;61.96
61408;BME280;47274;43.054;25.146;2023-08-06T03:11:31;94312.09;;;20.35;63.43
61408;BME280;47274;43.054;25.146;2023-08-06T03:14:03;94369.38;;;20.81;63.85
61408;BME280;47274;43.054;25.146;2023-08-06T03:16:29;94335.28;;;21.04;61.54
61408;BME280;47274;43.054;25.146;2023-08-06T03:18:56;94282.72;;;20.74;61.62
61408;BME280;47274;43.054;25.146;2023-08-06T03:21:21;94365.34;;;20.56;63.88
61408;BME280;47274;43.054;25.146;2023-08-06T03:23:47;94319.50;;;20.27;64.12
61408;BME280;47274;43.054;25.146;2023-08-06T03:26:15;94348.06;;;20.50;64.40
61408;BME280;47274;43.054;25.146;2023-08-06T03:28:41;94273.56;;;20.54;61.95
61408;BME280;47274;43.054;25.146;2023-08-06T03:31:15;94286.41;;;20.44;62.77
61408;BME280;47274;43.054;25.146;2023-08-06T03:33:44;94355.34;;;20.82;63.31
61408;BME280;47274;43.054;25.146;2023-08-06T03:36:14;94259.34;;;20.45;61.19
61408;BME280;47274;43.054;25.146;2023-08-06T03:38:45;94311.72;;;20.77;61.72
61408;BME280;47274;43.054;25.146;2023-08-06T03:41:13;94339.88;;;21.14;60.96
61408;BME280;47274;43.054;25.146;2023-08-06T03:43:39;94318.81;;;21.38;59.74
61408;BME280;47274;43.054;25.146;2023-08-06T03:46:10;94361.69;;;21.47;59.82
61408;BME280;47274;43.054;25.146;2023-08-06T03:48:36;94333.97;;;21.63;59.12
61408;BME280;47274;43.054;25.146;2023-08-06T03:51:02;94316.56;;;21.73;58.42
61408;BME280;47274;43.054;25.146;2023-08-06T03:53:28;94362.69;;;21.63;59.66
61408;BME280;47274;43.054;25.146;2023-08-06T03:55:54;94345.97;;;21.64;59.14
61408;BME280;47274;43.054;25.146;2023-08-06T03:58:21;94341.03;;;21.89;58.41
61408;BME280;47274;43.054;25.146;2023-08-06T04:01:00;94356.38;;;22.08;57.74
61408;BME280;47274;43.054;25.146;2023-08-06T04:03:47;94294.41;;;21.76;57.57
61408;BME280;47274;43.054;25.146;2023-08-06T04:06:13;94279.81;;;21.80;57.81
61408;BME280;47274;43.054;25.146;2023-08-06T04:08:39;94292.50;;;21.93;56.99
61408;BME280;47274;43.054;25.146;2023-08-06T04:11:07;94303.72;;;22.16;56.50
61408;BME280;47274;43.054;25.146;2023-08-06T04:13:43;94275.53;;;21.69;57.79
61408;BME280;47274;43.054;25.146;2023-08-06T04:16:19;94390.81;;;22.86;56.72
61408;BME280;47274;43.054;25.146;2023-08-06T04:18:47;94360.41;;;22.80;56.11
61408;BME280;47274;43.054;25.146;2023-08-06T04:21:12;94388.22;;;22.59;57.39
61408;BME280;47274;43.054;25.146;2023-08-06T04:23:39;94385.09;;;22.08;58.74
61408;BME280;47274;43.054;25.146;2023-08-06T04:26:13;94404.19;;;22.30;59.03
61408;BME280;47274;43.054;25.146;2023-08-06T04:28:39;94361.09;;;21.84;59.59
61408;BME280;47274;43.054;25.146;2023-08-06T04:31:15;94318.84;;;21.43;60.72
61408;BME280;47274;43.054;25.146;2023-08-06T04:33:57;94310.78;;;21.44;60.67
61408;BME280;47274;43.054;25.146;2023-08-06T04:36:34;94269.22;;;21.38;59.18
61408;BME280;47274;43.054;25.146;2023-08-06T04:39:02;94270.31;;;21.69;58.83
61408;BME280;47274;43.054;25.146;2023-08-06T04:41:28;94282.72;;;21.57;58.97
61408;BME280;47274;43.054;25.146;2023-08-06T04:43:54;94334.59;;;21.31;61.15
61408;BME280;47274;43.054;25.146;2023-08-06T04:46:20;94280.56;;;21.48;59.19
61408;BME280;47274;43.054;25.146;2023-08-06T04:48:51;94292.69;;;21.87;58.63
61408;BME280;47274;43.054;25.146;2023-08-06T04:51:31;94279.59;;;22.09;57.35
61408;BME280;47274;43.054;25.146;2023-08-06T04:53:59;94303.50;;;22.22;58.29
61408;BME280;47274;43.054;25.146;2023-08-06T04:56:38;94327.75;;;22.18;58.46
61408;BME280;47274;43.054;25.146;2023-08-06T04:59:06;94290.09;;;21.87;60.19
61408;BME280;47274;43.054;25.146;2023-08-06T05:01:38;94302.09;;;21.61;61.40
61408;BME280;47274;43.054;25.146;2023-08-06T05:04:06;94287.75;;;21.90;59.58
61408;BME280;47274;43.054;25.146;2023-08-06T05:06:32;94342.50;;;22.61;58.40
61408;BME280;47274;43.054;25.146;2023-08-06T05:08:58;94297.28;;;22.66;57.83
61408;BME280;47274;43.054;25.146;2023-08-06T05:11:31;94337.22;;;22.56;58.77
61408;BME280;47274;43.054;25.146;2023-08-06T05:13:57;94310.84;;;22.58;57.94
61408;BME280;47274;43.054;25.146;2023-08-06T05:16:31;94290.19;;;22.24;58.94
61408;BME280;47274;43.054;25.146;2023-08-06T05:18:59;94310.84;;;22.58;57.70
61408;BME280;47274;43.054;25.146;2023-08-06T05:21:25;94333.19;;;22.76;57.52
61408;BME280;47274;43.054;25.146;2023-08-06T05:24:01;94268.16;;;21.88;61.08
61408;BME280;47274;43.054;25.146;2023-08-06T05:26:29;94260.06;;;21.89;59.97
61408;BME280;47274;43.054;25.146;2023-08-06T05:28:55;94262.44;;;22.18;60.07
61408;BME280;47274;43.054;25.146;2023-08-06T05:31:23;94299.25;;;22.81;58.58
61408;BME280;47274;43.054;25.146;2023-08-06T05:33:59;94245.72;;;22.56;57.70
61408;BME280;47274;43.054;25.146;2023-08-06T05:36:25;94304.03;;;23.52;55.79
61408;BME280;47274;43.054;25.146;2023-08-06T05:38:53;94255.50;;;22.76;57.64
61408;BME280;47274;43.054;25.146;2023-08-06T05:41:21;94245.47;;;23.00;56.40
61408;BME280;47274;43.054;25.146;2023-08-06T05:43:56;94251.28;;;23.12;56.00
61408;BME280;47274;43.054;25.146;2023-08-06T05:46:31;94345.09;;;23.41;57.45
61408;BME280;47274;43.054;25.146;2023-08-06T05:49:00;94251.28;;;22.28;59.91
61408;BME280;47274;43.054;25.146;2023-08-06T05:51:46;94245.84;;;22.77;58.69
61408;BME280;47274;43.054;25.146;2023-08-06T05:54:35;94239.59;;;22.78;59.71
61408;BME280;47274;43.054;25.146;2023-08-06T05:57:01;94243.75;;;22.74;58.99
61408;BME280;47274;43.054;25.146;2023-08-06T05:59:29;94279.44;;;23.58;56.41
61408;BME280;47274;43.054;25.146;2023-08-06T06:02:05;94246.47;;;23.62;56.80
61408;BME280;47274;43.054;25.146;2023-08-06T06:04:34;94307.13;;;24.22;56.76
61408;BME280;47274;43.054;25.146;2023-08-06T06:07:00;94310.19;;;23.73;57.80
61408;BME280;47274;43.054;25.146;2023-08-06T06:09:25;94321.78;;;23.97;58.16
61408;BME280;47274;43.054;25.146;2023-08-06T06:11:51;94317.34;;;24.18;55.96
61408;BME280;47274;43.054;25.146;2023-08-06T06:14:18;94341.88;;;23.76;59.68
61408;BME280;47274;43.054;25.146;2023-08-06T06:16:44;94250.53;;;23.27;59.51
61408;BME280;47274;43.054;25.146;2023-08-06T06:19:11;94253.84;;;23.75;57.38
61408;BME280;47274;43.054;25.146;2023-08-06T06:21:37;94346.09;;;23.93;59.28
61408;BME280;47274;43.054;25.146;2023-08-06T06:24:06;94262.69;;;22.91;61.17
61408;BME280;47274;43.054;25.146;2023-08-06T06:26:41;94229.47;;;22.49;62.14
61408;BME280;47274;43.054;25.146;2023-08-06T06:29:10;94255.84;;;22.90;61.71
61408;BME280;47274;43.054;25.146;2023-08-06T06:31:36;94296.84;;;22.42;64.03
61408;BME280;47274;43.054;25.146;2023-08-06T06:34:07;94257.06;;;22.30;62.69
61408;BME280;47274;43.054;25.146;2023-08-06T06:36:33;94241.22;;;22.14;63.10
61408;BME280;47274;43.054;25.146;2023-08-06T06:39:09;94270.56;;;22.54;61.60
61408;BME280;47274;43.054;25.146;2023-08-06T06:41:35;94343.81;;;23.38;60.21
61408;BME280;47274;43.054;25.146;2023-08-06T06:44:13;94307.81;;;23.13;60.77
61408;BME280;47274;43.054;25.146;2023-08-06T06:46:55;94308.16;;;22.90;62.50
61408;BME280;47274;43.054;25.146;2023-08-06T06:49:32;94285.00;;;22.66;62.74
61408;BME280;47274;43.054;25.146;2023-08-06T06:52:03;94365.53;;;22.97;63.82
61408;BME280;47274;43.054;25.146;2023-08-06T06:54:29;94269.25;;;22.19;65.03
61408;BME280;47274;43.054;25.146;2023-08-06T06:56:58;94273.66;;;22.18;64.36
61408;BME280;47274;43.054;25.146;2023-08-06T06:59:26;94288.41;;;22.30;63.83
61408;BME280;47274;43.054;25.146;2023-08-06T07:01:52;94307.50;;;22.30;63.72
61408;BME280;47274;43.054;25.146;2023-08-06T07:04:21;94314.97;;;21.94;65.49
61408;BME280;47274;43.054;25.146;2023-08-06T07:06:57;94364.69;;;22.54;64.45
61408;BME280;47274;43.054;25.146;2023-08-06T07:09:23;94317.81;;;22.47;63.30
61408;BME280;47274;43.054;25.146;2023-08-06T07:11:52;94337.06;;;22.68;62.23
61408;BME280;47274;43.054;25.146;2023-08-06T07:14:18;94357.53;;;22.44;65.08
61408;BME280;47274;43.054;25.146;2023-08-06T07:16:54;94362.41;;;22.35;66.87
61408;BME280;47274;43.054;25.146;2023-08-06T07:19:25;94301.78;;;21.35;68.93
61408;BME280;47274;43.054;25.146;2023-08-06T07:21:51;94402.16;;;21.66;69.43
61408;BME280;47274;43.054;25.146;2023-08-06T07:24:16;94378.56;;;21.39;69.61
61408;BME280;47274;43.054;25.146;2023-08-06T07:26:45;94389.56;;;22.07;66.12
61408;BME280;47274;43.054;25.146;2023-08-06T07:29:14;94308.63;;;21.85;67.05
61408;BME280;47274;43.054;25.146;2023-08-06T07:31:45;94390.84;;;21.83;70.76
61408;BME280;47274;43.054;25.146;2023-08-06T07:34:13;94381.75;;;21.85;70.65
61408;BME280;47274;43.054;25.146;2023-08-06T07:36:39;94400.84;;;22.13;67.62
61408;BME280;47274;43.054;25.146;2023-08-06T07:39:14;94428.03;;;21.90;68.77
61408;BME280;47274;43.054;25.146;2023-08-06T07:41:42;94419.25;;;21.57;71.54
61408;BME280;47274;43.054;25.146;2023-08-06T07:44:08;94412.75;;;21.38;71.55
61408;BME280;47274;43.054;25.146;2023-08-06T07:46:33;94407.13;;;21.68;72.58
61408;BME280;47274;43.054;25.146;2023-08-06T07:49:01;94438.69;;;22.32;67.42
61408;BME280;47274;43.054;25.146;2023-08-06T07:51:28;94346.00;;;22.13;67.26
61408;BME280;47274;43.054;25.146;2023-08-06T07:53:54;94298.91;;;22.08;66.40
61408;BME280;47274;43.054;25.146;2023-08-06T07:56:20;94342.00;;;22.32;66.71
61408;BME280;47274;43.054;25.146;2023-08-06T07:58:48;94282.06;;;22.20;66.84
61408;BME280;47274;43.054;25.146;2023-08-06T08:01:29;94249.06;;;22.14;69.37
61408;BME280;47274;43.054;25.146;2023-08-06T08:03:57;94280.13;;;21.84;70.00
61408;BME280;47274;43.054;25.146;2023-08-06T08:06:23;94312.44;;;22.05;68.01
61408;BME280;47274;43.054;25.146;2023-08-06T08:08:57;94392.66;;;22.90;66.94
61408;BME280;47274;43.054;25.146;2023-08-06T08:11:22;94378.44;;;23.08;66.83
61408;BME280;47274;43.054;25.146;2023-08-06T08:13:48;94328.44;;;23.05;65.33
61408;BME280;47274;43.054;25.146;2023-08-06T08:16:14;94387.09;;;23.56;65.86
61408;BME280;47274;43.054;25.146;2023-08-06T08:18:43;94384.25;;;23.63;66.86
61408;BME280;47274;43.054;25.146;2023-08-06T08:21:12;94330.50;;;22.65;70.04
61408;BME280;47274;43.054;25.146;2023-08-06T08:23:38;94307.69;;;22.93;68.53
61408;BME280;47274;43.054;25.146;2023-08-06T08:26:07;94375.00;;;23.50;67.26
61408;BME280;47274;43.054;25.146;2023-08-06T08:28:36;94264.25;;;22.92;67.22
61408;BME280;47274;43.054;25.146;2023-08-06T08:31:10;94348.88;;;23.60;67.10
61408;BME280;47274;43.054;25.146;2023-08-06T08:33:40;94341.59;;;23.68;67.54
61408;BME280;47274;43.054;25.146;2023-08-06T08:36:06;94335.72;;;23.50;69.17
61408;BME280;47274;43.054;25.146;2023-08-06T08:38:32;94312.13;;;23.40;68.56
61408;BME280;47274;43.054;25.146;2023-08-06T08:40:58;94329.47;;;23.61;67.33
61408;BME280;47274;43.054;25.146;2023-08-06T08:43:24;94302.56;;;23.71;69.78
61408;BME280;47274;43.054;25.146;2023-08-06T08:45:50;94312.88;;;24.08;65.27
61408;BME280;47274;43.054;25.146;2023-08-06T08:48:18;94339.91;;;24.34;64.42
61408;BME280;47274;43.054;25.146;2023-08-06T08:50:48;94359.53;;;24.11;66.94
61408;BME280;47274;43.054;25.146;2023-08-06T08:53:15;94355.81;;;23.92;67.89
61408;BME280;47274;43.054;25.146;2023-08-06T08:55:43;94350.25;;;23.73;66.60
61408;BME280;47274;43.054;25.146;2023-08-06T08:58:10;94344.19;;;23.68;71.02
61408;BME280;47274;43.054;25.146;2023-08-06T09:00:36;94344.38;;;23.46;71.77
61408;BME280;47274;43.054;25.146;2023-08-06T09:03:06;94307.03;;;23.13;69.70
61408;BME280;47274;43.054;25.146;2023-08-06T09:05:32;94338.66;;;23.06;70.63
61408;BME280;47274;43.054;25.146;2023-08-06T09:08:05;94334.75;;;23.14;73.93
61408;BME280;47274;43.054;25.146;2023-08-06T09:10:34;94345.16;;;22.99;71.65
61408;BME280;47274;43.054;25.146;2023-08-06T09:13:02;94358.81;;;23.06;70.55
61408;BME280;47274;43.054;25.146;2023-08-06T09:15:30;94391.47;;;22.98;72.88
61408;BME280;47274;43.054;25.146;2023-08-06T09:17:56;94407.78;;;22.24;78.05
61408;BME280;47274;43.054;25.146;2023-08-06T09:20:21;94417.53;;;21.85;80.47
61408;BME280;47274;43.054;25.146;2023-08-06T09:22:47;94399.22;;;21.41;79.96
61408;BME280;47274;43.054;25.146;2023-08-06T09:25:24;94422.56;;;21.69;79.58
61408;BME280;47274;43.054;25.146;2023-08-06T09:27:51;94426.72;;;21.32;80.82
61408;BME280;47274;43.054;25.146;2023-08-06T09:30:35;94440.38;;;21.56;81.57
61408;BME280;47274;43.054;25.146;2023-08-06T09:33:08;94404.47;;;21.07;82.47
61408;BME280;47274;43.054;25.146;2023-08-06T09:35:40;94410.75;;;21.28;80.27
61408;BME280;47274;43.054;25.146;2023-08-06T09:38:09;94374.94;;;21.62;78.36
61408;BME280;47274;43.054;25.146;2023-08-06T09:41:03;94393.72;;;22.08;77.74
61408;BME280;47274;43.054;25.146;2023-08-06T09:43:46;94422.38;;;21.54;80.19
61408;BME280;47274;43.054;25.146;2023-08-06T09:46:13;94412.72;;;21.55;78.91
61408;BME280;47274;43.054;25.146;2023-08-06T09:48:45;94394.31;;;21.27;82.89
61408;BME280;47274;43.054;25.146;2023-08-06T09:51:13;94402.16;;;21.27;79.50
61408;BME280;47274;43.054;25.146;2023-08-06T09:54:05;94401.84;;;21.24;79.93
61408;BME280;47274;43.054;25.146;2023-08-06T09:56:57;94399.41;;;21.34;80.71
61408;BME280;47274;43.054;25.146;2023-08-06T09:59:48;94420.84;;;21.80;76.54
61408;BME280;47274;43.054;25.146;2023-08-06T10:02:40;94428.69;;;21.80;76.63
61408;BME280;47274;43.054;25.146;2023-08-06T10:05:07;94416.75;;;22.11;75.99
61408;BME280;47274;43.054;25.146;2023-08-06T10:07:36;94422.97;;;21.83;78.14
61408;BME280;47274;43.054;25.146;2023-08-06T10:10:02;94449.75;;;21.73;76.30
61408;BME280;47274;43.054;25.146;2023-08-06T10:12:37;94461.97;;;21.90;75.91
61408;BME280;47274;43.054;25.146;2023-08-06T10:15:09;94391.09;;;21.37;76.75
61408;BME280;47274;43.054;25.146;2023-08-06T10:17:39;94368.97;;;21.06;77.38
61408;BME280;47274;43.054;25.146;2023-08-06T10:20:08;94420.94;;;21.46;76.21
61408;BME280;47274;43.054;25.146;2023-08-06T10:23:00;94409.19;;;21.44;75.16
61408;BME280;47274;43.054;25.146;2023-08-06T10:25:26;94408.09;;;21.62;73.18
61408;BME280;47274;43.054;25.146;2023-08-06T10:28:10;94388.13;;;21.50;73.65
61408;BME280;47274;43.054;25.146;2023-08-06T10:30:46;94374.38;;;21.60;73.00
61408;BME280;47274;43.054;25.146;2023-08-06T10:33:15;94340.03;;;21.68;72.32
61408;BME280;47274;43.054;25.146;2023-08-06T10:35:49;94322.53;;;21.69;71.80
61408;BME280;47274;43.054;25.146;2023-08-06T10:38:25;94388.91;;;22.17;72.32
61408;BME280;47274;43.054;25.146;2023-08-06T10:45:52;94445.19;;;22.08;75.68
61408;BME280;47274;43.054;25.146;2023-08-06T10:51:00;94471.94;;;20.70;80.57
61408;BME280;47274;43.054;25.146;2023-08-06T10:53:26;94419.41;;;20.95;79.20
61408;BME280;47274;43.054;25.146;2023-08-06T10:55:52;94465.63;;;21.50;76.27
61408;BME280;47274;43.054;25.146;2023-08-06T10:58:17;94458.47;;;21.40;76.63
61408;BME280;47274;43.054;25.146;2023-08-06T11:00:43;94455.75;;;21.74;74.65
61408;BME280;47274;43.054;25.146;2023-08-06T11:03:12;94382.75;;;21.84;72.34
61408;BME280;47274;43.054;25.146;2023-08-06T11:05:38;94429.78;;;22.55;71.68
61408;BME280;47274;43.054;25.146;2023-08-06T11:08:04;94406.59;;;22.64;70.64
61408;BME280;47274;43.054;25.146;2023-08-06T11:10:33;94430.59;;;22.88;70.07
61408;BME280;47274;43.054;25.146;2023-08-06T11:13:03;94445.72;;;23.13;68.78
61408;BME280;47274;43.054;25.146;2023-08-06T11:15:30;94457.91;;;23.34;68.11
61408;BME280;47274;43.054;25.146;2023-08-06T11:17:57;94454.94;;;23.21;68.48
61408;BME280;47274;43.054;25.146;2023-08-06T11:20:24;94464.97;;;23.34;68.54
61408;BME280;47274;43.054;25.146;2023-08-06T11:22:50;94463.28;;;23.17;68.78
61408;BME280;47274;43.054;25.146;2023-08-06T11:25:16;94472.25;;;23.27;68.53
61408;BME280;47274;43.054;25.146;2023-08-06T11:27:41;94440.78;;;23.16;70.38
61408;BME280;47274;43.054;25.146;2023-08-06T11:30:10;94471.06;;;23.07;70.28
61408;BME280;47274;43.054;25.146;2023-08-06T11:32:46;94475.75;;;22.51;72.30
61408;BME280;47274;43.054;25.146;2023-08-06T11:35:16;94488.44;;;22.37;73.84
61408;BME280;47274;43.054;25.146;2023-08-06T11:37:45;94464.03;;;22.32;72.72
61408;BME280;47274;43.054;25.146;2023-08-06T11:40:11;94493.47;;;22.71;72.49
61408;BME280;47274;43.054;25.146;2023-08-06T11:42:37;94471.13;;;22.85;71.61
61408;BME280;47274;43.054;25.146;2023-08-06T11:45:04;94454.94;;;22.88;70.37
61408;BME280;47274;43.054;25.146;2023-08-06T11:47:32;94481.16;;;23.26;72.21
61408;BME280;47274;43.054;25.146;2023-08-06T11:49:58;94485.28;;;23.54;70.20
61408;BME280;47274;43.054;25.146;2023-08-06T11:52:25;94451.78;;;23.61;70.17
61408;BME280;47274;43.054;25.146;2023-08-06T11:55:07;94420.16;;;23.68;69.73
61408;BME280;47274;43.054;25.146;2023-08-06T11:57:46;94413.81;;;22.84;74.21
61408;BME280;47274;43.054;25.146;2023-08-06T12:00:13;94394.47;;;22.85;73.12
61408;BME280;47274;43.054;25.146;2023-08-06T12:02:51;94401.34;;;23.28;70.59
61408;BME280;47274;43.054;25.146;2023-08-06T12:05:32;94453.91;;;23.22;74.30
61408;BME280;47274;43.054;25.146;2023-08-06T12:08:09;94426.44;;;22.33;75.79
61408;BME280;47274;43.054;25.146;2023-08-06T12:11:00;94486.59;;;23.19;75.03
61408;BME280;47274;43.054;25.146;2023-08-06T12:13:28;94471.53;;;23.36;72.11
61408;BME280;47274;43.054;25.146;2023-08-06T12:15:55;94476.00;;;22.77;75.41
61408;BME280;47274;43.054;25.146;2023-08-06T12:18:22;94446.59;;;22.91;74.34
61408;BME280;47274;43.054;25.146;2023-08-06T12:20:51;94440.69;;;23.06;71.51
61408;BME280;47274;43.054;25.146;2023-08-06T12:23:17;94501.41;;;23.73;71.37
61408;BME280;47274;43.054;25.146;2023-08-06T12:25:43;94509.88;;;23.53;74.00
61408;BME280;47274;43.054;25.146;2023-08-06T12:28:10;94490.50;;;23.16;74.12
61408;BME280;47274;43.054;25.146;2023-08-06T12:30:36;94490.22;;;23.50;71.02
61408;BME280;47274;43.054;25.146;2023-08-06T12:33:02;94492.78;;;23.40;71.48
61408;BME280;47274;43.054;25.146;2023-08-06T12:35:28;94495.25;;;23.57;71.99
61408;BME280;47274;43.054;25.146;2023-08-06T12:37:53;94488.38;;;23.46;72.77
61408;BME280;47274;43.054;25.146;2023-08-06T12:40:20;94464.94;;;23.66;71.37
61408;BME280;47274;43.054;25.146;2023-08-06T12:42:46;94477.28;;;23.76;70.29
61408;BME280;47274;43.054;25.146;2023-08-06T12:45:14;94472.03;;;24.33;68.86
61408;BME280;47274;43.054;25.146;2023-08-06T12:47:40;94424.50;;;24.09;67.99
61408;BME280;47274;43.054;25.146;2023-08-06T12:50:07;94433.81;;;24.43;67.23
61408;BME280;47274;43.054;25.146;2023-08-06T12:52:33;94464.03;;;24.66;68.45
61408;BME280;47274;43.054;25.146;2023-08-06T12:55:01;94450.88;;;24.61;66.54
61408;BME280;47274;43.054;25.146;2023-08-06T12:57:27;94453.56;;;24.86;67.02
61408;BME280;47274;43.054;25.146;2023-08-06T12:59:55;94451.19;;;24.95;67.30
61408;BME280;47274;43.054;25.146;2023-08-06T13:02:20;94456.72;;;25.19;66.42
61408;BME280;47274;43.054;25.146;2023-08-06T13:04:47;94430.19;;;25.05;67.01
61408;BME280;47274;43.054;25.146;2023-08-06T13:07:13;94443.28;;;25.46;64.99
61408;BME280;47274;43.054;25.146;2023-08-06T13:09:39;94439.63;;;25.01;66.29
61408;BME280;47274;43.054;25.146;2023-08-06T13:12:05;94445.69;;;25.37;67.01
61408;BME280;47274;43.054;25.146;2023-08-06T13:14:34;94423.91;;;24.65;67.03
61408;BME280;47274;43.054;25.146;2023-08-06T13:17:00;94426.25;;;24.87;67.28